sensor_id;sensor_type;location;lat;lon;timestamp;temperature;humidity
3348;DHT22;1687;49.540;8.574;2023-07-31T00:00:32;20.80;62.20
3348;DHT22;1687;49.540;8.574;2023-07-31T00:02:58;20.80;62.30
3348;DHT22;1687;49.540;8.574;2023-07-31T00:05:24;20.70;62.10
3348;DHT22;1687;49.540;8.574;2023-07-31T00:07:49;20.70;62.50
3348;DHT22;1687;49.540;8.574;2023-07-31T00:10:15;20.70;62.40
3348;DHT22;1687;49.540;8.574;2023-07-31T00:12:43;20.60;62.40
3348;DHT22;1687;49.540;8.574;2023-07-31T00:15:10;20.60;62.60
3348;DHT22;1687;49.540;8.574;2023-07-31T00:17:37;20.60;62.60
3348;DHT22;1687;49.540;8.574;2023-07-31T00:20:03;20.60;62.70
3348;DHT22;1687;49.540;8.574;2023-07-31T00:22:29;20.60;62.90
3348;DHT22;1687;49.540;8.574;2023-07-31T00:24:56;20.60;62.90
3348;DHT22;1687;49.540;8.574;2023-07-31T00:27:22;20.50;62.80
3348;DHT22;1687;49.540;8.574;2023-07-31T00:29:48;20.50;63.00
3348;DHT22;1687;49.540;8.574;2023-07-31T00:32:13;20.50;63.20
3348;DHT22;1687;49.540;8.574;2023-07-31T00:34:39;20.50;63.20
3348;DHT22;1687;49.540;8.574;2023-07-31T00:37:05;20.40;63.30
3348;DHT22;1687;49.540;8.574;2023-07-31T00:39:31;20.40;63.40
3348;DHT22;1687;49.540;8.574;2023-07-31T00:41:56;20.40;63.50
3348;DHT22;1687;49.540;8.574;2023-07-31T00:44:22;20.40;63.70
3348;DHT22;1687;49.540;8.574;2023-07-31T00:46:48;20.30;63.60
3348;DHT22;1687;49.540;8.574;2023-07-31T00:49:14;20.30;63.60
3348;DHT22;1687;49.540;8.574;2023-07-31T00:51:41;20.30;63.80
3348;DHT22;1687;49.540;8.574;2023-07-31T00:54:07;20.30;63.80
3348;DHT22;1687;49.540;8.574;2023-07-31T00:56:33;20.30;63.90
3348;DHT22;1687;49.540;8.574;2023-07-31T00:58:59;20.20;63.80
3348;DHT22;1687;49.540;8.574;2023-07-31T01:01:24;20.10;63.90
3348;DHT22;1687;49.540;8.574;2023-07-31T01:03:52;20.10;64.20
3348;DHT22;1687;49.540;8.574;2023-07-31T01:07:08;20.10;64.30
3348;DHT22;1687;49.540;8.574;2023-07-31T01:12:29;20.00;64.40
3348;DHT22;1687;49.540;8.574;2023-07-31T01:15:04;20.00;64.50
3348;DHT22;1687;49.540;8.574;2023-07-31T01:17:36;20.00;64.60
3348;DHT22;1687;49.540;8.574;2023-07-31T01:20:16;20.00;64.80
3348;DHT22;1687;49.540;8.574;2023-07-31T01:31:29;20.00;64.90
3348;DHT22;1687;49.540;8.574;2023-07-31T01:33:59;20.00;65.10
3348;DHT22;1687;49.540;8.574;2023-07-31T01:36:27;20.00;65.20
3348;DHT22;1687;49.540;8.574;2023-07-31T01:39:01;20.00;65.00
3348;DHT22;1687;49.540;8.574;2023-07-31T01:41:27;19.90;65.10
3348;DHT22;1687;49.540;8.574;2023-07-31T01:43:53;19.90;65.10
3348;DHT22;1687;49.540;8.574;2023-07-31T01:46:19;19.90;65.20
3348;DHT22;1687;49.540;8.574;2023-07-31T01:48:44;20.00;65.60
3348;DHT22;1687;49.540;8.574;2023-07-31T01:51:10;20.00;65.30
3348;DHT22;1687;49.540;8.574;2023-07-31T01:53:36;20.00;65.50
3348;DHT22;1687;49.540;8.574;2023-07-31T01:56:01;20.00;65.60
3348;DHT22;1687;49.540;8.574;2023-07-31T01:58:27;20.00;65.60
3348;DHT22;1687;49.540;8.574;2023-07-31T02:00:53;20.00;65.50
3348;DHT22;1687;49.540;8.574;2023-07-31T02:03:18;20.00;65.50
3348;DHT22;1687;49.540;8.574;2023-07-31T02:05:45;20.00;65.50
3348;DHT22;1687;49.540;8.574;2023-07-31T02:08:15;20.00;65.60
3348;DHT22;1687;49.540;8.574;2023-07-31T02:10:41;20.00;65.60
3348;DHT22;1687;49.540;8.574;2023-07-31T02:13:07;20.00;65.50
3348;DHT22;1687;49.540;8.574;2023-07-31T02:15:33;19.90;65.60
3348;DHT22;1687;49.540;8.574;2023-07-31T02:17:59;20.00;65.80
3348;DHT22;1687;49.540;8.574;2023-07-31T02:20:25;20.10;66.10
3348;DHT22;1687;49.540;8.574;2023-07-31T02:22:51;20.10;65.70
3348;DHT22;1687;49.540;8.574;2023-07-31T02:25:16;20.10;65.70
3348;DHT22;1687;49.540;8.574;2023-07-31T02:27:42;20.10;65.60
3348;DHT22;1687;49.540;8.574;2023-07-31T02:30:08;20.10;65.70
3348;DHT22;1687;49.540;8.574;2023-07-31T02:32:34;20.10;65.60
3348;DHT22;1687;49.540;8.574;2023-07-31T02:35:00;20.00;65.50
3348;DHT22;1687;49.540;8.574;2023-07-31T02:37:26;20.00;65.70
3348;DHT22;1687;49.540;8.574;2023-07-31T02:39:54;20.00;65.80
3348;DHT22;1687;49.540;8.574;2023-07-31T02:42:20;20.00;65.70
3348;DHT22;1687;49.540;8.574;2023-07-31T02:44:45;20.00;65.80
3348;DHT22;1687;49.540;8.574;2023-07-31T02:47:11;20.00;65.90
3348;DHT22;1687;49.540;8.574;2023-07-31T02:49:37;20.00;65.80
3348;DHT22;1687;49.540;8.574;2023-07-31T02:52:03;20.00;65.80
3348;DHT22;1687;49.540;8.574;2023-07-31T02:54:29;20.00;65.80
3348;DHT22;1687;49.540;8.574;2023-07-31T02:56:54;20.00;65.80
3348;DHT22;1687;49.540;8.574;2023-07-31T02:59:20;20.00;65.90
3348;DHT22;1687;49.540;8.574;2023-07-31T03:01:46;20.00;65.60
3348;DHT22;1687;49.540;8.574;2023-07-31T03:04:11;19.90;65.70
3348;DHT22;1687;49.540;8.574;2023-07-31T03:06:37;19.80;65.60
3348;DHT22;1687;49.540;8.574;2023-07-31T03:09:03;19.90;66.00
3348;DHT22;1687;49.540;8.574;2023-07-31T03:11:28;19.90;65.70
3348;DHT22;1687;49.540;8.574;2023-07-31T03:13:54;19.90;65.90
3348;DHT22;1687;49.540;8.574;2023-07-31T03:16:20;20.00;65.90
3348;DHT22;1687;49.540;8.574;2023-07-31T03:18:45;20.00;65.90
3348;DHT22;1687;49.540;8.574;2023-07-31T03:21:12;20.00;66.00
3348;DHT22;1687;49.540;8.574;2023-07-31T03:23:38;20.00;65.80
3348;DHT22;1687;49.540;8.574;2023-07-31T03:26:06;19.90;65.60
3348;DHT22;1687;49.540;8.574;2023-07-31T03:28:33;19.90;66.50
3348;DHT22;1687;49.540;8.574;2023-07-31T03:30:59;19.90;65.80
3348;DHT22;1687;49.540;8.574;2023-07-31T03:33:25;19.80;65.60
3348;DHT22;1687;49.540;8.574;2023-07-31T03:35:51;19.80;65.60
3348;DHT22;1687;49.540;8.574;2023-07-31T03:38:17;19.70;65.70
3348;DHT22;1687;49.540;8.574;2023-07-31T03:40:43;19.70;65.80
3348;DHT22;1687;49.540;8.574;2023-07-31T03:43:09;19.70;65.80
3348;DHT22;1687;49.540;8.574;2023-07-31T03:45:34;19.80;66.00
3348;DHT22;1687;49.540;8.574;2023-07-31T03:48:00;19.70;65.70
3348;DHT22;1687;49.540;8.574;2023-07-31T03:50:26;19.80;66.00
3348;DHT22;1687;49.540;8.574;2023-07-31T03:52:52;19.80;65.80
3348;DHT22;1687;49.540;8.574;2023-07-31T03:55:18;19.80;65.80
3348;DHT22;1687;49.540;8.574;2023-07-31T03:57:43;19.70;65.70
3348;DHT22;1687;49.540;8.574;2023-07-31T04:00:10;19.70;65.90
3348;DHT22;1687;49.540;8.574;2023-07-31T04:02:36;19.70;65.70
3348;DHT22;1687;49.540;8.574;2023-07-31T04:05:01;19.70;65.90
3348;DHT22;1687;49.540;8.574;2023-07-31T04:07:27;19.70;65.70
3348;DHT22;1687;49.540;8.574;2023-07-31T04:09:53;19.70;65.90
3348;DHT22;1687;49.540;8.574;2023-07-31T04:12:18;19.60;65.80
3348;DHT22;1687;49.540;8.574;2023-07-31T04:14:44;19.60;66.00
3348;DHT22;1687;49.540;8.574;2023-07-31T04:17:10;19.70;66.10
3348;DHT22;1687;49.540;8.574;2023-07-31T04:19:35;19.70;65.80
3348;DHT22;1687;49.540;8.574;2023-07-31T04:22:01;19.70;66.00
3348;DHT22;1687;49.540;8.574;2023-07-31T04:24:27;19.60;65.90
3348;DHT22;1687;49.540;8.574;2023-07-31T04:26:53;19.70;66.00
3348;DHT22;1687;49.540;8.574;2023-07-31T04:29:19;19.70;66.20
3348;DHT22;1687;49.540;8.574;2023-07-31T04:31:45;19.70;66.00
3348;DHT22;1687;49.540;8.574;2023-07-31T04:34:11;19.70;66.10
3348;DHT22;1687;49.540;8.574;2023-07-31T04:36:39;19.70;66.10
3348;DHT22;1687;49.540;8.574;2023-07-31T04:39:05;19.70;66.20
3348;DHT22;1687;49.540;8.574;2023-07-31T04:41:31;19.70;66.10
3348;DHT22;1687;49.540;8.574;2023-07-31T04:43:56;19.70;66.20
3348;DHT22;1687;49.540;8.574;2023-07-31T04:46:22;19.70;66.10
3348;DHT22;1687;49.540;8.574;2023-07-31T04:48:48;19.70;66.30
3348;DHT22;1687;49.540;8.574;2023-07-31T04:51:13;19.70;66.20
3348;DHT22;1687;49.540;8.574;2023-07-31T04:53:39;19.70;66.10
3348;DHT22;1687;49.540;8.574;2023-07-31T04:56:05;19.70;66.30
3348;DHT22;1687;49.540;8.574;2023-07-31T04:58:31;19.80;66.20
3348;DHT22;1687;49.540;8.574;2023-07-31T05:00:56;19.70;66.30
3348;DHT22;1687;49.540;8.574;2023-07-31T05:03:22;19.80;66.40
3348;DHT22;1687;49.540;8.574;2023-07-31T05:05:48;19.90;66.40
3348;DHT22;1687;49.540;8.574;2023-07-31T05:08:14;19.80;66.30
3348;DHT22;1687;49.540;8.574;2023-07-31T05:10:39;19.90;66.40
3348;DHT22;1687;49.540;8.574;2023-07-31T05:13:05;19.90;66.30
3348;DHT22;1687;49.540;8.574;2023-07-31T05:15:31;20.00;66.40
3348;DHT22;1687;49.540;8.574;2023-07-31T05:17:56;20.00;66.30
3348;DHT22;1687;49.540;8.574;2023-07-31T05:20:22;20.00;66.50
3348;DHT22;1687;49.540;8.574;2023-07-31T05:22:48;20.10;66.40
3348;DHT22;1687;49.540;8.574;2023-07-31T05:25:13;20.10;66.30
3348;DHT22;1687;49.540;8.574;2023-07-31T05:27:39;20.10;66.40
3348;DHT22;1687;49.540;8.574;2023-07-31T05:30:05;20.10;66.50
3348;DHT22;1687;49.540;8.574;2023-07-31T05:32:32;20.10;66.70
3348;DHT22;1687;49.540;8.574;2023-07-31T05:34:57;20.30;67.00
3348;DHT22;1687;49.540;8.574;2023-07-31T05:37:23;20.40;66.50
3348;DHT22;1687;49.540;8.574;2023-07-31T05:39:49;20.40;66.30
3348;DHT22;1687;49.540;8.574;2023-07-31T05:42:15;20.40;66.50
3348;DHT22;1687;49.540;8.574;2023-07-31T05:44:41;20.50;66.80
3348;DHT22;1687;49.540;8.574;2023-07-31T05:47:07;20.60;66.60
3348;DHT22;1687;49.540;8.574;2023-07-31T05:49:32;20.70;66.40
3348;DHT22;1687;49.540;8.574;2023-07-31T05:51:59;20.80;66.80
3348;DHT22;1687;49.540;8.574;2023-07-31T05:54:24;20.90;66.70
3348;DHT22;1687;49.540;8.574;2023-07-31T05:56:50;21.10;66.60
3348;DHT22;1687;49.540;8.574;2023-07-31T05:59:16;21.20;66.60
3348;DHT22;1687;49.540;8.574;2023-07-31T06:01:42;21.20;66.00
3348;DHT22;1687;49.540;8.574;2023-07-31T06:04:08;21.20;66.40
3348;DHT22;1687;49.540;8.574;2023-07-31T06:06:34;21.30;66.40
3348;DHT22;1687;49.540;8.574;2023-07-31T06:09:00;21.30;66.00
3348;DHT22;1687;49.540;8.574;2023-07-31T06:11:26;21.30;65.90
3348;DHT22;1687;49.540;8.574;2023-07-31T06:13:51;21.30;65.90
3348;DHT22;1687;49.540;8.574;2023-07-31T06:16:17;21.30;65.50
3348;DHT22;1687;49.540;8.574;2023-07-31T06:18:43;21.10;65.20
3348;DHT22;1687;49.540;8.574;2023-07-31T06:21:11;21.00;65.60
3348;DHT22;1687;49.540;8.574;2023-07-31T06:23:37;21.20;65.80
3348;DHT22;1687;49.540;8.574;2023-07-31T06:26:02;21.20;65.70
3348;DHT22;1687;49.540;8.574;2023-07-31T06:28:29;21.30;65.50
3348;DHT22;1687;49.540;8.574;2023-07-31T06:30:56;21.30;65.60
3348;DHT22;1687;49.540;8.574;2023-07-31T06:33:22;21.40;65.60
3348;DHT22;1687;49.540;8.574;2023-07-31T06:35:48;21.40;65.70
3348;DHT22;1687;49.540;8.574;2023-07-31T06:38:14;21.50;65.40
3348;DHT22;1687;49.540;8.574;2023-07-31T06:40:39;21.60;65.50
3348;DHT22;1687;49.540;8.574;2023-07-31T06:43:05;21.60;65.50
3348;DHT22;1687;49.540;8.574;2023-07-31T06:45:35;21.60;65.30
3348;DHT22;1687;49.540;8.574;2023-07-31T06:48:01;21.50;65.10
3348;DHT22;1687;49.540;8.574;2023-07-31T06:50:29;21.50;65.10
3348;DHT22;1687;49.540;8.574;2023-07-31T06:52:56;21.40;65.10
3348;DHT22;1687;49.540;8.574;2023-07-31T06:55:22;21.40;65.10
3348;DHT22;1687;49.540;8.574;2023-07-31T06:57:49;21.40;65.50
3348;DHT22;1687;49.540;8.574;2023-07-31T07:00:17;21.30;65.10
3348;DHT22;1687;49.540;8.574;2023-07-31T07:02:43;21.30;65.30
3348;DHT22;1687;49.540;8.574;2023-07-31T07:05:09;21.40;65.50
3348;DHT22;1687;49.540;8.574;2023-07-31T07:07:36;21.50;65.40
3348;DHT22;1687;49.540;8.574;2023-07-31T07:10:01;21.40;65.00
3348;DHT22;1687;49.540;8.574;2023-07-31T07:12:30;21.40;65.00
3348;DHT22;1687;49.540;8.574;2023-07-31T07:14:56;21.40;65.10
3348;DHT22;1687;49.540;8.574;2023-07-31T07:17:23;21.40;65.00
3348;DHT22;1687;49.540;8.574;2023-07-31T07:19:49;21.40;65.10
3348;DHT22;1687;49.540;8.574;2023-07-31T07:22:15;21.70;65.90
3348;DHT22;1687;49.540;8.574;2023-07-31T07:24:41;22.00;65.80
3348;DHT22;1687;49.540;8.574;2023-07-31T07:27:07;22.20;65.30
3348;DHT22;1687;49.540;8.574;2023-07-31T07:29:34;22.10;65.10
3348;DHT22;1687;49.540;8.574;2023-07-31T07:32:00;22.10;65.00
3348;DHT22;1687;49.540;8.574;2023-07-31T07:34:27;22.00;65.10
3348;DHT22;1687;49.540;8.574;2023-07-31T07:36:53;22.00;65.20
3348;DHT22;1687;49.540;8.574;2023-07-31T07:39:20;22.00;65.00
3348;DHT22;1687;49.540;8.574;2023-07-31T07:41:46;22.10;65.10
3348;DHT22;1687;49.540;8.574;2023-07-31T07:44:13;22.20;64.90
3348;DHT22;1687;49.540;8.574;2023-07-31T07:46:39;22.20;64.90
3348;DHT22;1687;49.540;8.574;2023-07-31T07:49:04;22.20;64.90
3348;DHT22;1687;49.540;8.574;2023-07-31T07:51:30;22.20;64.60
3348;DHT22;1687;49.540;8.574;2023-07-31T07:53:57;22.30;65.10
3348;DHT22;1687;49.540;8.574;2023-07-31T07:56:25;22.20;64.40
3348;DHT22;1687;49.540;8.574;2023-07-31T07:58:52;22.30;64.90
3348;DHT22;1687;49.540;8.574;2023-07-31T08:01:18;22.40;65.00
3348;DHT22;1687;49.540;8.574;2023-07-31T08:03:44;22.60;64.70
3348;DHT22;1687;49.540;8.574;2023-07-31T08:06:09;22.60;64.50
3348;DHT22;1687;49.540;8.574;2023-07-31T08:08:36;22.70;64.80
3348;DHT22;1687;49.540;8.574;2023-07-31T08:11:02;22.90;65.10
3348;DHT22;1687;49.540;8.574;2023-07-31T08:13:28;23.10;64.80
3348;DHT22;1687;49.540;8.574;2023-07-31T08:15:54;23.00;64.40
3348;DHT22;1687;49.540;8.574;2023-07-31T08:18:19;23.10;64.20
3348;DHT22;1687;49.540;8.574;2023-07-31T08:20:45;23.00;64.40
3348;DHT22;1687;49.540;8.574;2023-07-31T08:23:11;22.90;64.20
3348;DHT22;1687;49.540;8.574;2023-07-31T08:25:38;22.80;64.00
3348;DHT22;1687;49.540;8.574;2023-07-31T08:28:04;22.70;64.20
3348;DHT22;1687;49.540;8.574;2023-07-31T08:30:31;22.60;64.40
3348;DHT22;1687;49.540;8.574;2023-07-31T08:32:56;22.70;64.60
3348;DHT22;1687;49.540;8.574;2023-07-31T08:35:23;22.80;64.90
3348;DHT22;1687;49.540;8.574;2023-07-31T08:37:49;23.00;64.80
3348;DHT22;1687;49.540;8.574;2023-07-31T08:40:15;23.20;64.70
3348;DHT22;1687;49.540;8.574;2023-07-31T08:42:48;23.30;64.60
3348;DHT22;1687;49.540;8.574;2023-07-31T08:45:17;23.50;64.60
3348;DHT22;1687;49.540;8.574;2023-07-31T08:47:47;23.70;64.70
3348;DHT22;1687;49.540;8.574;2023-07-31T08:50:14;23.80;64.40
3348;DHT22;1687;49.540;8.574;2023-07-31T08:52:43;23.90;64.50
3348;DHT22;1687;49.540;8.574;2023-07-31T08:55:09;24.10;64.70
3348;DHT22;1687;49.540;8.574;2023-07-31T08:57:37;24.40;64.30
3348;DHT22;1687;49.540;8.574;2023-07-31T09:00:05;24.60;64.20
3348;DHT22;1687;49.540;8.574;2023-07-31T09:05:11;24.60;63.50
3348;DHT22;1687;49.540;8.574;2023-07-31T09:07:38;24.60;63.40
3348;DHT22;1687;49.540;8.574;2023-07-31T09:10:04;24.40;63.00
3348;DHT22;1687;49.540;8.574;2023-07-31T09:12:31;24.30;62.80
3348;DHT22;1687;49.540;8.574;2023-07-31T09:14:58;24.40;63.10
3348;DHT22;1687;49.540;8.574;2023-07-31T09:17:35;24.70;63.40
3348;DHT22;1687;49.540;8.574;2023-07-31T09:20:18;24.90;62.70
3348;DHT22;1687;49.540;8.574;2023-07-31T09:22:46;25.10;62.60
3348;DHT22;1687;49.540;8.574;2023-07-31T09:25:18;25.00;62.50
3348;DHT22;1687;49.540;8.574;2023-07-31T09:28:00;25.00;62.40
3348;DHT22;1687;49.540;8.574;2023-07-31T09:30:27;25.00;62.00
3348;DHT22;1687;49.540;8.574;2023-07-31T09:33:04;24.90;61.80
3348;DHT22;1687;49.540;8.574;2023-07-31T09:35:34;25.00;62.30
3348;DHT22;1687;49.540;8.574;2023-07-31T09:38:07;25.20;62.40
3348;DHT22;1687;49.540;8.574;2023-07-31T09:40:42;25.50;61.70
3348;DHT22;1687;49.540;8.574;2023-07-31T09:43:19;25.50;61.30
3348;DHT22;1687;49.540;8.574;2023-07-31T09:45:46;25.60;61.30
3348;DHT22;1687;49.540;8.574;2023-07-31T09:48:13;25.80;61.40
3348;DHT22;1687;49.540;8.574;2023-07-31T09:50:45;25.90;60.90
3348;DHT22;1687;49.540;8.574;2023-07-31T09:53:12;25.90;60.50
3348;DHT22;1687;49.540;8.574;2023-07-31T09:55:39;25.70;60.40
3348;DHT22;1687;49.540;8.574;2023-07-31T09:58:08;25.60;60.30
3348;DHT22;1687;49.540;8.574;2023-07-31T10:00:35;25.40;60.20
3348;DHT22;1687;49.540;8.574;2023-07-31T10:03:05;25.30;60.00
3348;DHT22;1687;49.540;8.574;2023-07-31T10:05:52;25.10;60.00
3348;DHT22;1687;49.540;8.574;2023-07-31T10:08:21;25.00;60.50
3348;DHT22;1687;49.540;8.574;2023-07-31T10:10:51;25.00;60.20
3348;DHT22;1687;49.540;8.574;2023-07-31T10:13:17;24.90;60.20
3348;DHT22;1687;49.540;8.574;2023-07-31T10:15:44;24.70;59.90
3348;DHT22;1687;49.540;8.574;2023-07-31T10:18:11;24.60;60.10
3348;DHT22;1687;49.540;8.574;2023-07-31T10:20:37;24.60;60.20
3348;DHT22;1687;49.540;8.574;2023-07-31T10:23:03;24.60;60.20
3348;DHT22;1687;49.540;8.574;2023-07-31T10:25:29;24.50;60.10
3348;DHT22;1687;49.540;8.574;2023-07-31T10:27:57;24.50;60.10
3348;DHT22;1687;49.540;8.574;2023-07-31T10:30:26;24.60;60.70
3348;DHT22;1687;49.540;8.574;2023-07-31T10:32:53;24.90;60.80
3348;DHT22;1687;49.540;8.574;2023-07-31T10:35:20;25.00;60.30
3348;DHT22;1687;49.540;8.574;2023-07-31T10:37:47;25.10;60.40
3348;DHT22;1687;49.540;8.574;2023-07-31T10:40:20;25.10;60.40
3348;DHT22;1687;49.540;8.574;2023-07-31T10:42:53;25.10;60.10
3348;DHT22;1687;49.540;8.574;2023-07-31T10:45:32;25.10;59.90
3348;DHT22;1687;49.540;8.574;2023-07-31T10:48:18;25.00;60.00
3348;DHT22;1687;49.540;8.574;2023-07-31T10:50:52;25.00;60.00
3348;DHT22;1687;49.540;8.574;2023-07-31T10:53:29;25.20;60.10
3348;DHT22;1687;49.540;8.574;2023-07-31T10:55:58;25.50;60.10
3348;DHT22;1687;49.540;8.574;2023-07-31T10:58:25;25.50;59.70
3348;DHT22;1687;49.540;8.574;2023-07-31T11:00:55;25.40;59.60
3348;DHT22;1687;49.540;8.574;2023-07-31T11:03:25;25.40;59.60
3348;DHT22;1687;49.540;8.574;2023-07-31T11:05:52;25.20;59.50
3348;DHT22;1687;49.540;8.574;2023-07-31T11:08:24;25.20;59.60
3348;DHT22;1687;49.540;8.574;2023-07-31T11:13:30;25.20;59.20
3348;DHT22;1687;49.540;8.574;2023-07-31T11:15:57;25.20;59.20
3348;DHT22;1687;49.540;8.574;2023-07-31T11:18:24;25.10;59.40
3348;DHT22;1687;49.540;8.574;2023-07-31T11:20:51;25.30;59.40
3348;DHT22;1687;49.540;8.574;2023-07-31T11:23:17;25.30;59.10
3348;DHT22;1687;49.540;8.574;2023-07-31T11:25:43;25.20;59.10
3348;DHT22;1687;49.540;8.574;2023-07-31T11:28:14;25.10;58.80
3348;DHT22;1687;49.540;8.574;2023-07-31T11:30:41;25.10;59.10
3348;DHT22;1687;49.540;8.574;2023-07-31T11:33:12;25.10;59.10
3348;DHT22;1687;49.540;8.574;2023-07-31T11:35:47;25.20;59.00
3348;DHT22;1687;49.540;8.574;2023-07-31T11:38:24;25.10;59.10
3348;DHT22;1687;49.540;8.574;2023-07-31T11:40:53;25.10;59.10
3348;DHT22;1687;49.540;8.574;2023-07-31T11:43:20;25.00;58.80
3348;DHT22;1687;49.540;8.574;2023-07-31T11:45:55;24.80;59.00
3348;DHT22;1687;49.540;8.574;2023-07-31T11:48:27;24.70;59.10
3348;DHT22;1687;49.540;8.574;2023-07-31T11:50:57;24.60;59.00
3348;DHT22;1687;49.540;8.574;2023-07-31T11:53:45;24.60;59.30
3348;DHT22;1687;49.540;8.574;2023-07-31T11:56:17;24.60;59.30
3348;DHT22;1687;49.540;8.574;2023-07-31T11:58:47;24.60;59.30
3348;DHT22;1687;49.540;8.574;2023-07-31T12:01:16;24.50;59.20
3348;DHT22;1687;49.540;8.574;2023-07-31T12:03:44;24.40;59.40
3348;DHT22;1687;49.540;8.574;2023-07-31T12:06:11;24.50;59.60
3348;DHT22;1687;49.540;8.574;2023-07-31T12:08:36;24.50;59.50
3348;DHT22;1687;49.540;8.574;2023-07-31T12:11:07;24.50;59.60
3348;DHT22;1687;49.540;8.574;2023-07-31T12:13:36;24.50;59.50
3348;DHT22;1687;49.540;8.574;2023-07-31T12:16:03;24.50;59.60
3348;DHT22;1687;49.540;8.574;2023-07-31T12:18:33;24.50;59.70
3348;DHT22;1687;49.540;8.574;2023-07-31T12:21:01;24.60;59.70
3348;DHT22;1687;49.540;8.574;2023-07-31T12:23:30;24.70;59.90
3348;DHT22;1687;49.540;8.574;2023-07-31T12:26:10;24.80;59.90
3348;DHT22;1687;49.540;8.574;2023-07-31T12:28:42;25.00;59.80
3348;DHT22;1687;49.540;8.574;2023-07-31T12:31:10;25.10;59.70
3348;DHT22;1687;49.540;8.574;2023-07-31T12:33:38;25.10;59.50
3348;DHT22;1687;49.540;8.574;2023-07-31T12:36:10;25.00;59.20
3348;DHT22;1687;49.540;8.574;2023-07-31T12:38:37;24.80;59.40
3348;DHT22;1687;49.540;8.574;2023-07-31T12:41:03;24.90;59.50
3348;DHT22;1687;49.540;8.574;2023-07-31T12:43:29;24.90;59.40
3348;DHT22;1687;49.540;8.574;2023-07-31T12:45:55;24.80;59.30
3348;DHT22;1687;49.540;8.574;2023-07-31T12:48:21;24.80;59.30
3348;DHT22;1687;49.540;8.574;2023-07-31T12:50:47;24.80;59.40
3348;DHT22;1687;49.540;8.574;2023-07-31T12:53:14;24.80;59.30
3348;DHT22;1687;49.540;8.574;2023-07-31T12:55:40;24.80;59.20
3348;DHT22;1687;49.540;8.574;2023-07-31T12:58:06;24.80;59.20
3348;DHT22;1687;49.540;8.574;2023-07-31T13:00:31;24.90;59.30
3348;DHT22;1687;49.540;8.574;2023-07-31T13:02:57;25.10;59.20
3348;DHT22;1687;49.540;8.574;2023-07-31T13:05:24;25.10;59.00
3348;DHT22;1687;49.540;8.574;2023-07-31T13:07:49;25.30;59.20
3348;DHT22;1687;49.540;8.574;2023-07-31T13:10:15;25.50;59.00
3348;DHT22;1687;49.540;8.574;2023-07-31T13:12:41;25.80;59.20
3348;DHT22;1687;49.540;8.574;2023-07-31T13:15:07;26.10;59.10
3348;DHT22;1687;49.540;8.574;2023-07-31T13:17:33;26.30;59.00
3348;DHT22;1687;49.540;8.574;2023-07-31T13:19:59;26.30;58.60
3348;DHT22;1687;49.540;8.574;2023-07-31T13:22:25;26.40;58.50
3348;DHT22;1687;49.540;8.574;2023-07-31T13:24:51;26.20;58.30
3348;DHT22;1687;49.540;8.574;2023-07-31T13:27:17;26.10;58.20
3348;DHT22;1687;49.540;8.574;2023-07-31T13:29:48;26.00;58.30
3348;DHT22;1687;49.540;8.574;2023-07-31T13:32:15;25.70;57.90
3348;DHT22;1687;49.540;8.574;2023-07-31T13:34:41;25.50;58.10
3348;DHT22;1687;49.540;8.574;2023-07-31T13:37:07;25.30;58.20
3348;DHT22;1687;49.540;8.574;2023-07-31T13:39:32;25.20;58.20
3348;DHT22;1687;49.540;8.574;2023-07-31T13:42:03;25.10;58.30
3348;DHT22;1687;49.540;8.574;2023-07-31T13:44:32;25.20;58.60
3348;DHT22;1687;49.540;8.574;2023-07-31T13:46:59;25.20;58.50
3348;DHT22;1687;49.540;8.574;2023-07-31T13:49:25;25.20;58.50
3348;DHT22;1687;49.540;8.574;2023-07-31T13:51:51;25.10;58.30
3348;DHT22;1687;49.540;8.574;2023-07-31T13:54:17;24.90;58.30
3348;DHT22;1687;49.540;8.574;2023-07-31T13:56:42;24.80;58.50
3348;DHT22;1687;49.540;8.574;2023-07-31T13:59:10;24.80;58.80
3348;DHT22;1687;49.540;8.574;2023-07-31T14:01:36;24.70;58.60
3348;DHT22;1687;49.540;8.574;2023-07-31T14:04:02;24.60;58.70
3348;DHT22;1687;49.540;8.574;2023-07-31T14:06:28;24.60;58.80
3348;DHT22;1687;49.540;8.574;2023-07-31T14:08:54;24.60;58.80
3348;DHT22;1687;49.540;8.574;2023-07-31T14:11:21;24.60;59.10
3348;DHT22;1687;49.540;8.574;2023-07-31T14:13:47;24.60;59.10
3348;DHT22;1687;49.540;8.574;2023-07-31T14:16:13;24.60;59.00
3348;DHT22;1687;49.540;8.574;2023-07-31T14:18:39;24.60;59.10
3348;DHT22;1687;49.540;8.574;2023-07-31T14:21:04;24.60;59.20
3348;DHT22;1687;49.540;8.574;2023-07-31T14:23:30;24.60;59.30
3348;DHT22;1687;49.540;8.574;2023-07-31T14:25:56;24.60;59.40
3348;DHT22;1687;49.540;8.574;2023-07-31T14:28:21;24.70;59.50
3348;DHT22;1687;49.540;8.574;2023-07-31T14:30:47;24.80;59.50
3348;DHT22;1687;49.540;8.574;2023-07-31T14:33:13;25.00;59.70
3348;DHT22;1687;49.540;8.574;2023-07-31T14:35:38;25.20;59.90
3348;DHT22;1687;49.540;8.574;2023-07-31T14:38:04;25.40;59.40
3348;DHT22;1687;49.540;8.574;2023-07-31T14:40:30;25.30;59.00
3348;DHT22;1687;49.540;8.574;2023-07-31T14:42:55;25.30;59.50
3348;DHT22;1687;49.540;8.574;2023-07-31T14:45:21;25.30;59.40
3348;DHT22;1687;49.540;8.574;2023-07-31T14:47:47;25.20;59.20
3348;DHT22;1687;49.540;8.574;2023-07-31T14:50:12;25.20;59.40
3348;DHT22;1687;49.540;8.574;2023-07-31T14:52:38;25.20;59.30
3348;DHT22;1687;49.540;8.574;2023-07-31T14:55:04;25.10;59.20
3348;DHT22;1687;49.540;8.574;2023-07-31T14:57:30;25.00;59.20
3348;DHT22;1687;49.540;8.574;2023-07-31T14:59:56;24.90;59.40
3348;DHT22;1687;49.540;8.574;2023-07-31T15:02:22;24.90;59.60
3348;DHT22;1687;49.540;8.574;2023-07-31T15:04:47;25.00;59.50
3348;DHT22;1687;49.540;8.574;2023-07-31T15:07:13;25.10;59.60
3348;DHT22;1687;49.540;8.574;2023-07-31T15:09:39;25.20;59.70
3348;DHT22;1687;49.540;8.574;2023-07-31T15:12:05;25.30;59.60
3348;DHT22;1687;49.540;8.574;2023-07-31T15:14:31;25.30;59.60
3348;DHT22;1687;49.540;8.574;2023-07-31T15:16:58;25.40;59.60
3348;DHT22;1687;49.540;8.574;2023-07-31T15:19:23;25.60;59.60
3348;DHT22;1687;49.540;8.574;2023-07-31T15:21:49;25.50;59.40
3348;DHT22;1687;49.540;8.574;2023-07-31T15:24:15;25.40;59.20
3348;DHT22;1687;49.540;8.574;2023-07-31T15:26:41;25.50;59.30
3348;DHT22;1687;49.540;8.574;2023-07-31T15:29:07;25.70;59.50
3348;DHT22;1687;49.540;8.574;2023-07-31T15:31:45;25.80;59.40
3348;DHT22;1687;49.540;8.574;2023-07-31T15:34:12;25.70;58.90
3348;DHT22;1687;49.540;8.574;2023-07-31T15:36:38;25.60;58.90
3348;DHT22;1687;49.540;8.574;2023-07-31T15:39:04;25.50;59.00
3348;DHT22;1687;49.540;8.574;2023-07-31T15:41:29;25.50;59.00
3348;DHT22;1687;49.540;8.574;2023-07-31T15:43:55;25.50;58.80
3348;DHT22;1687;49.540;8.574;2023-07-31T15:46:21;25.50;59.00
3348;DHT22;1687;49.540;8.574;2023-07-31T15:48:47;25.50;58.70
3348;DHT22;1687;49.540;8.574;2023-07-31T15:51:13;25.50;58.90
3348;DHT22;1687;49.540;8.574;2023-07-31T15:53:39;25.60;59.10
3348;DHT22;1687;49.540;8.574;2023-07-31T15:56:06;25.70;58.90
3348;DHT22;1687;49.540;8.574;2023-07-31T15:58:31;25.80;58.90
3348;DHT22;1687;49.540;8.574;2023-07-31T16:00:58;25.90;59.00
3348;DHT22;1687;49.540;8.574;2023-07-31T16:03:23;25.90;58.70
3348;DHT22;1687;49.540;8.574;2023-07-31T16:05:49;25.90;58.80
3348;DHT22;1687;49.540;8.574;2023-07-31T16:08:15;25.70;58.70
3348;DHT22;1687;49.540;8.574;2023-07-31T16:10:41;25.60;58.60
3348;DHT22;1687;49.540;8.574;2023-07-31T16:13:06;25.50;58.80
3348;DHT22;1687;49.540;8.574;2023-07-31T16:15:32;25.40;58.80
3348;DHT22;1687;49.540;8.574;2023-07-31T16:17:58;25.20;58.80